sensor_id;sensor_type;location;lat;lon;timestamp;temperature;humidity
37896;DHT22;23733;53.254;10.430;2023-03-24T03:38:07;11.00;99.90
37896;DHT22;23733;53.254;10.430;2023-03-24T03:40:42;10.20;99.90
37896;DHT22;23733;53.254;10.430;2023-03-24T03:43:12;10.20;99.90
37896;DHT22;23733;53.254;10.430;2023-03-24T03:45:38;10.20;99.90
37896;DHT22;23733;53.254;10.430;2023-03-24T03:48:04;10.20;99.90
37896;DHT22;23733;53.254;10.430;2023-03-24T03:50:32;10.20;99.90
37896;DHT22;23733;53.254;10.430;2023-03-24T03:52:58;10.20;99.90
37896;DHT22;23733;53.254;10.430;2023-03-24T06:22:15;10.20;99.90
37896;DHT22;23733;53.254;10.430;2023-03-24T06:29:35;10.70;99.90
37896;DHT22;23733;53.254;10.430;2023-03-24T06:51:37;10.80;99.90
37896;DHT22;23733;53.254;10.430;2023-03-24T07:01:22;10.80;99.90
37896;DHT22;23733;53.254;10.430;2023-03-24T07:21:09;11.00;99.90
37896;DHT22;23733;53.254;10.430;2023-03-24T09:31:33;11.10;99.90
37896;DHT22;23733;53.254;10.430;2023-03-24T10:28:48;12.70;99.90
37896;DHT22;23733;53.254;10.430;2023-03-24T10:31:20;12.70;99.90
37896;DHT22;23733;53.254;10.430;2023-03-24T14:32:03;14.10;99.90
37896;DHT22;23733;53.254;10.430;2023-03-24T14:34:29;14.00;99.90
37896;DHT22;23733;53.254;10.430;2023-03-24T14:37:02;14.10;99.90
37896;DHT22;23733;53.254;10.430;2023-03-24T14:39:53;14.10;99.90
37896;DHT22;23733;53.254;10.430;2023-03-24T14:45:36;14.00;99.90
37896;DHT22;23733;53.254;10.430;2023-03-24T14:53:57;14.10;99.90
37896;DHT22;23733;53.254;10.430;2023-03-24T14:56:35;14.20;99.90
37896;DHT22;23733;53.254;10.430;2023-03-24T15:02:34;14.20;99.90
37896;DHT22;23733;53.254;10.430;2023-03-24T15:08:15;14.10;99.90
37896;DHT22;23733;53.254;10.430;2023-03-24T15:10:55;14.20;99.90
37896;DHT22;23733;53.254;10.430;2023-03-24T15:18:48;14.10;99.90
37896;DHT22;23733;53.254;10.430;2023-03-24T15:23:47;14.10;99.90
37896;DHT22;23733;53.254;10.430;2023-03-24T15:26:19;13.90;99.90
37896;DHT22;23733;53.254;10.430;2023-03-24T15:28:56;13.90;99.90
37896;DHT22;23733;53.254;10.430;2023-03-24T15:31:24;13.90;99.90
37896;DHT22;23733;53.254;10.430;2023-03-24T15:33:50;14.00;99.90
37896;DHT22;23733;53.254;10.430;2023-03-24T15:36:22;14.00;99.90
37896;DHT22;23733;53.254;10.430;2023-03-24T15:38:49;14.00;99.90
37896;DHT22;23733;53.254;10.430;2023-03-24T15:41:19;13.90;99.90
37896;DHT22;23733;53.254;10.430;2023-03-24T15:43:50;13.90;99.90
37896;DHT22;23733;53.254;10.430;2023-03-24T15:46:28;13.90;99.90
37896;DHT22;23733;53.254;10.430;2023-03-24T15:48:56;13.90;99.90
37896;DHT22;23733;53.254;10.430;2023-03-24T15:51:45;13.80;99.90
37896;DHT22;23733;53.254;10.430;2023-03-24T15:54:29;13.80;99.90
37896;DHT22;23733;53.254;10.430;2023-03-24T15:57:00;13.80;99.90
37896;DHT22;23733;53.254;10.430;2023-03-24T15:59:35;13.70;99.90
37896;DHT22;23733;53.254;10.430;2023-03-24T16:02:11;13.70;99.90
37896;DHT22;23733;53.254;10.430;2023-03-24T16:04:39;13.70;99.90
37896;DHT22;23733;53.254;10.430;2023-03-24T16:07:05;13.60;99.90
37896;DHT22;23733;53.254;10.430;2023-03-24T16:09:35;13.60;99.90
37896;DHT22;23733;53.254;10.430;2023-03-24T16:12:11;13.50;99.90
37896;DHT22;23733;53.254;10.430;2023-03-24T16:14:37;13.40;99.90
37896;DHT22;23733;53.254;10.430;2023-03-24T16:17:03;13.40;99.90
37896;DHT22;23733;53.254;10.430;2023-03-24T16:19:29;13.50;99.90
37896;DHT22;23733;53.254;10.430;2023-03-24T16:21:56;13.30;99.90
37896;DHT22;23733;53.254;10.430;2023-03-24T16:24:22;13.30;99.90
37896;DHT22;23733;53.254;10.430;2023-03-24T16:26:48;13.20;99.90
37896;DHT22;23733;53.254;10.430;2023-03-24T16:29:20;13.20;99.90
37896;DHT22;23733;53.254;10.430;2023-03-24T16:31:48;13.10;99.90
37896;DHT22;23733;53.254;10.430;2023-03-24T16:34:16;13.10;99.90
37896;DHT22;23733;53.254;10.430;2023-03-24T16:36:46;13.00;99.90
37896;DHT22;23733;53.254;10.430;2023-03-24T16:39:20;12.90;99.90
37896;DHT22;23733;53.254;10.430;2023-03-24T16:41:47;12.70;99.90
37896;DHT22;23733;53.254;10.430;2023-03-24T16:44:13;12.70;99.90
37896;DHT22;23733;53.254;10.430;2023-03-24T16:46:43;12.60;99.90
37896;DHT22;23733;53.254;10.430;2023-03-24T16:49:13;12.60;99.90
37896;DHT22;23733;53.254;10.430;2023-03-24T16:51:39;12.40;99.90
37896;DHT22;23733;53.254;10.430;2023-03-24T16:54:06;12.40;99.90
37896;DHT22;23733;53.254;10.430;2023-03-24T16:56:32;12.40;99.90
37896;DHT22;23733;53.254;10.430;2023-03-24T16:58:58;12.30;99.90
37896;DHT22;23733;53.254;10.430;2023-03-24T17:06:30;12.30;99.90
37896;DHT22;23733;53.254;10.430;2023-03-24T17:08:57;12.30;99.90
37896;DHT22;23733;53.254;10.430;2023-03-24T17:11:30;12.30;99.90
37896;DHT22;23733;53.254;10.430;2023-03-24T17:13:56;12.30;99.90
37896;DHT22;23733;53.254;10.430;2023-03-24T17:16:31;12.30;99.90
37896;DHT22;23733;53.254;10.430;2023-03-24T17:19:02;12.20;99.90
37896;DHT22;23733;53.254;10.430;2023-03-24T17:21:28;12.20;99.90
37896;DHT22;23733;53.254;10.430;2023-03-24T17:23:55;12.10;99.90
37896;DHT22;23733;53.254;10.430;2023-03-24T17:26:22;12.00;99.90
37896;DHT22;23733;53.254;10.430;2023-03-24T17:28:48;12.00;99.90
37896;DHT22;23733;53.254;10.430;2023-03-24T17:31:14;12.00;99.90
37896;DHT22;23733;53.254;10.430;2023-03-24T17:33:40;12.00;99.90
37896;DHT22;23733;53.254;10.430;2023-03-24T17:36:10;12.00;99.90
37896;DHT22;23733;53.254;10.430;2023-03-24T17:38:37;12.00;99.90
37896;DHT22;23733;53.254;10.430;2023-03-24T17:41:04;12.10;99.90
37896;DHT22;23733;53.254;10.430;2023-03-24T17:43:30;12.00;99.90
37896;DHT22;23733;53.254;10.430;2023-03-24T17:45:58;12.00;99.90
37896;DHT22;23733;53.254;10.430;2023-03-24T17:48:25;12.00;99.90
37896;DHT22;23733;53.254;10.430;2023-03-24T17:50:54;12.00;99.90
37896;DHT22;23733;53.254;10.430;2023-03-24T17:53:22;12.00;99.90
37896;DHT22;23733;53.254;10.430;2023-03-24T17:55:53;11.90;99.90
37896;DHT22;23733;53.254;10.430;2023-03-24T17:58:19;11.90;99.90
37896;DHT22;23733;53.254;10.430;2023-03-24T18:00:46;11.90;99.90
37896;DHT22;23733;53.254;10.430;2023-03-24T18:03:12;11.90;99.90
37896;DHT22;23733;53.254;10.430;2023-03-24T18:05:38;11.80;99.90
37896;DHT22;23733;53.254;10.430;2023-03-24T18:08:05;11.80;99.90
37896;DHT22;23733;53.254;10.430;2023-03-24T18:10:31;11.80;99.90
37896;DHT22;23733;53.254;10.430;2023-03-24T18:13:04;11.80;99.90
37896;DHT22;23733;53.254;10.430;2023-03-24T18:15:30;11.80;99.90
37896;DHT22;23733;53.254;10.430;2023-03-24T18:17:56;11.70;99.90
37896;DHT22;23733;53.254;10.430;2023-03-24T18:20:23;11.70;99.90
37896;DHT22;23733;53.254;10.430;2023-03-24T18:22:49;11.70;99.90
37896;DHT22;23733;53.254;10.430;2023-03-24T18:25:15;11.70;99.90
37896;DHT22;23733;53.254;10.430;2023-03-24T18:27:41;11.70;99.90
37896;DHT22;23733;53.254;10.430;2023-03-24T18:30:10;11.60;99.90
37896;DHT22;23733;53.254;10.430;2023-03-24T18:32:37;11.60;99.90
37896;DHT22;23733;53.254;10.430;2023-03-24T18:35:06;11.50;99.90
37896;DHT22;23733;53.254;10.430;2023-03-24T18:37:33;11.50;99.90
37896;DHT22;23733;53.254;10.430;2023-03-24T18:40:01;11.50;99.90
37896;DHT22;23733;53.254;10.430;2023-03-24T18:42:31;11.50;99.90
37896;DHT22;23733;53.254;10.430;2023-03-24T18:44:57;11.40;99.90
37896;DHT22;23733;53.254;10.430;2023-03-24T18:47:23;11.40;99.90
37896;DHT22;23733;53.254;10.430;2023-03-24T18:49:49;11.40;99.90
37896;DHT22;23733;53.254;10.430;2023-03-24T18:52:16;11.40;99.90
37896;DHT22;23733;53.254;10.430;2023-03-24T18:54:43;11.40;99.90
37896;DHT22;23733;53.254;10.430;2023-03-24T18:57:10;11.30;99.90
37896;DHT22;23733;53.254;10.430;2023-03-24T19:06:56;11.30;99.90
37896;DHT22;23733;53.254;10.430;2023-03-24T19:09:22;11.10;99.90
37896;DHT22;23733;53.254;10.430;2023-03-24T19:11:48;11.10;99.90
37896;DHT22;23733;53.254;10.430;2023-03-24T19:14:14;11.00;99.90
37896;DHT22;23733;53.254;10.430;2023-03-24T19:16:41;11.00;99.90
37896;DHT22;23733;53.254;10.430;2023-03-24T19:19:07;11.00;99.90
37896;DHT22;23733;53.254;10.430;2023-03-24T19:31:19;10.90;99.90
37896;DHT22;23733;53.254;10.430;2023-03-24T19:33:46;10.80;99.90
37896;DHT22;23733;53.254;10.430;2023-03-24T19:36:13;10.80;99.90
37896;DHT22;23733;53.254;10.430;2023-03-24T19:38:40;10.70;99.90
37896;DHT22;23733;53.254;10.430;2023-03-24T19:41:08;10.70;99.90
37896;DHT22;23733;53.254;10.430;2023-03-24T19:43:34;10.70;99.90
37896;DHT22;23733;53.254;10.430;2023-03-24T19:46:02;10.70;99.90
37896;DHT22;23733;53.254;10.430;2023-03-24T19:48:29;10.70;99.90
37896;DHT22;23733;53.254;10.430;2023-03-24T19:50:55;10.60;99.90
37896;DHT22;23733;53.254;10.430;2023-03-24T19:53:22;10.60;99.90
37896;DHT22;23733;53.254;10.430;2023-03-24T19:55:49;10.60;99.90
37896;DHT22;23733;53.254;10.430;2023-03-24T19:58:15;10.50;99.90
37896;DHT22;23733;53.254;10.430;2023-03-24T20:00:42;10.50;99.90
37896;DHT22;23733;53.254;10.430;2023-03-24T20:03:08;10.50;99.90
37896;DHT22;23733;53.254;10.430;2023-03-24T20:05:34;10.50;99.90
37896;DHT22;23733;53.254;10.430;2023-03-24T20:08:01;10.50;99.90
37896;DHT22;23733;53.254;10.430;2023-03-24T20:10:27;10.40;99.90
37896;DHT22;23733;53.254;10.430;2023-03-24T20:12:53;10.40;99.90
37896;DHT22;23733;53.254;10.430;2023-03-24T20:17:46;10.30;99.90
37896;DHT22;23733;53.254;10.430;2023-03-24T20:20:15;10.20;99.90
37896;DHT22;23733;53.254;10.430;2023-03-24T20:22:42;10.20;99.90
37896;DHT22;23733;53.254;10.430;2023-03-24T20:25:15;10.10;99.90
37896;DHT22;23733;53.254;10.430;2023-03-24T20:27:45;10.10;99.90
37896;DHT22;23733;53.254;10.430;2023-03-24T20:30:16;10.10;99.90
37896;DHT22;23733;53.254;10.430;2023-03-24T20:32:43;10.10;99.90
37896;DHT22;23733;53.254;10.430;2023-03-24T20:35:09;10.10;99.90
37896;DHT22;23733;53.254;10.430;2023-03-24T20:37:38;10.10;99.90
37896;DHT22;23733;53.254;10.430;2023-03-24T20:40:06;10.00;99.90
37896;DHT22;23733;53.254;10.430;2023-03-24T20:42:49;10.00;99.90
37896;DHT22;23733;53.254;10.430;2023-03-24T20:45:15;10.00;99.90
37896;DHT22;23733;53.254;10.430;2023-03-24T20:47:41;10.00;99.90
37896;DHT22;23733;53.254;10.430;2023-03-24T20:50:11;10.00;99.90
37896;DHT22;23733;53.254;10.430;2023-03-24T20:52:37;9.90;99.90
37896;DHT22;23733;53.254;10.430;2023-03-24T20:55:03;9.90;99.90
37896;DHT22;23733;53.254;10.430;2023-03-24T20:57:36;9.90;99.90
37896;DHT22;23733;53.254;10.430;2023-03-24T21:00:03;9.90;99.90
37896;DHT22;23733;53.254;10.430;2023-03-24T21:02:41;9.80;99.90
37896;DHT22;23733;53.254;10.430;2023-03-24T21:05:08;9.80;99.90
37896;DHT22;23733;53.254;10.430;2023-03-24T21:07:37;9.70;99.90
37896;DHT22;23733;53.254;10.430;2023-03-24T21:10:07;9.70;99.90
37896;DHT22;23733;53.254;10.430;2023-03-24T21:12:38;9.70;99.90
37896;DHT22;23733;53.254;10.430;2023-03-24T21:15:08;9.70;99.90
37896;DHT22;23733;53.254;10.430;2023-03-24T21:17:37;9.70;99.90
37896;DHT22;23733;53.254;10.430;2023-03-24T21:20:07;9.80;99.90
37896;DHT22;23733;53.254;10.430;2023-03-24T21:22:37;9.70;99.90
37896;DHT22;23733;53.254;10.430;2023-03-24T21:25:29;9.70;99.90
37896;DHT22;23733;53.254;10.430;2023-03-24T21:27:56;9.70;99.90
37896;DHT22;23733;53.254;10.430;2023-03-24T21:30:28;9.70;99.90
37896;DHT22;23733;53.254;10.430;2023-03-24T21:32:55;9.70;99.90
37896;DHT22;23733;53.254;10.430;2023-03-24T21:35:22;9.60;99.90
37896;DHT22;23733;53.254;10.430;2023-03-24T21:37:51;9.60;99.90
37896;DHT22;23733;53.254;10.430;2023-03-24T21:40:20;9.60;99.90
37896;DHT22;23733;53.254;10.430;2023-03-24T21:42:47;9.60;99.90
37896;DHT22;23733;53.254;10.430;2023-03-24T21:45:19;9.60;99.90
37896;DHT22;23733;53.254;10.430;2023-03-24T21:47:47;9.60;99.90
37896;DHT22;23733;53.254;10.430;2023-03-24T21:50:16;9.60;99.90
37896;DHT22;23733;53.254;10.430;2023-03-24T21:52:44;9.60;99.90
37896;DHT22;23733;53.254;10.430;2023-03-24T21:55:13;9.60;99.90
37896;DHT22;23733;53.254;10.430;2023-03-24T21:57:43;9.60;99.90
37896;DHT22;23733;53.254;10.430;2023-03-24T22:00:12;9.60;99.90
37896;DHT22;23733;53.254;10.430;2023-03-24T22:02:41;9.60;99.90
37896;DHT22;23733;53.254;10.430;2023-03-24T22:05:14;9.60;99.90
37896;DHT22;23733;53.254;10.430;2023-03-24T22:07:41;9.60;99.90
37896;DHT22;23733;53.254;10.430;2023-03-24T22:10:08;9.60;99.90
37896;DHT22;23733;53.254;10.430;2023-03-24T22:12:35;9.60;99.90
37896;DHT22;23733;53.254;10.430;2023-03-24T22:15:01;9.50;99.90
37896;DHT22;23733;53.254;10.430;2023-03-24T22:17:27;9.60;99.90
37896;DHT22;23733;53.254;10.430;2023-03-24T22:19:53;9.60;99.90
37896;DHT22;23733;53.254;10.430;2023-03-24T22:22:19;9.60;99.90
37896;DHT22;23733;53.254;10.430;2023-03-24T22:24:45;9.60;99.90
37896;DHT22;23733;53.254;10.430;2023-03-24T22:27:11;9.60;99.90
37896;DHT22;23733;53.254;10.430;2023-03-24T22:29:37;9.60;99.90
37896;DHT22;23733;53.254;10.430;2023-03-24T22:32:03;9.60;99.90
37896;DHT22;23733;53.254;10.430;2023-03-24T22:34:32;9.60;99.90
37896;DHT22;23733;53.254;10.430;2023-03-24T22:36:58;9.60;99.90
37896;DHT22;23733;53.254;10.430;2023-03-24T22:39:24;9.50;99.90
37896;DHT22;23733;53.254;10.430;2023-03-24T22:41:50;9.50;99.90
37896;DHT22;23733;53.254;10.430;2023-03-24T22:44:16;9.50;99.90
37896;DHT22;23733;53.254;10.430;2023-03-24T22:46:44;9.50;99.90
37896;DHT22;23733;53.254;10.430;2023-03-24T22:49:10;9.50;99.90
37896;DHT22;23733;53.254;10.430;2023-03-24T22:51:36;9.50;99.90
37896;DHT22;23733;53.254;10.430;2023-03-24T22:54:02;9.50;99.90
37896;DHT22;23733;53.254;10.430;2023-03-24T22:56:28;9.40;99.90
37896;DHT22;23733;53.254;10.430;2023-03-24T22:58:54;9.40;99.90
37896;DHT22;23733;53.254;10.430;2023-03-24T23:01:20;9.40;99.90
37896;DHT22;23733;53.254;10.430;2023-03-24T23:03:46;9.40;99.90
37896;DHT22;23733;53.254;10.430;2023-03-24T23:06:15;9.40;99.90
37896;DHT22;23733;53.254;10.430;2023-03-24T23:08:41;9.40;99.90
37896;DHT22;23733;53.254;10.430;2023-03-24T23:11:10;9.40;99.90
37896;DHT22;23733;53.254;10.430;2023-03-24T23:13:37;9.40;99.90
37896;DHT22;23733;53.254;10.430;2023-03-24T23:16:04;9.40;99.90
37896;DHT22;23733;53.254;10.430;2023-03-24T23:18:30;9.30;99.90
37896;DHT22;23733;53.254;10.430;2023-03-24T23:21:02;9.30;99.90
37896;DHT22;23733;53.254;10.430;2023-03-24T23:23:29;9.30;99.90
37896;DHT22;23733;53.254;10.430;2023-03-24T23:25:55;9.30;99.90
37896;DHT22;23733;53.254;10.430;2023-03-24T23:28:22;9.40;99.90
37896;DHT22;23733;53.254;10.430;2023-03-24T23:30:48;9.30;99.90
37896;DHT22;23733;53.254;10.430;2023-03-24T23:33:14;9.40;99.90
37896;DHT22;23733;53.254;10.430;2023-03-24T23:35:40;9.40;99.90
37896;DHT22;23733;53.254;10.430;2023-03-24T23:38:06;9.40;99.90
37896;DHT22;23733;53.254;10.430;2023-03-24T23:40:36;9.40;99.90
37896;DHT22;23733;53.254;10.430;2023-03-24T23:43:02;9.30;99.90
37896;DHT22;23733;53.254;10.430;2023-03-24T23:45:28;9.30;99.90
37896;DHT22;23733;53.254;10.430;2023-03-24T23:47:54;9.30;99.90
37896;DHT22;23733;53.254;10.430;2023-03-24T23:50:20;9.30;99.90
37896;DHT22;23733;53.254;10.430;2023-03-24T23:52:47;9.30;99.90
37896;DHT22;23733;53.254;10.430;2023-03-24T23:55:14;9.30;99.90
37896;DHT22;23733;53.254;10.430;2023-03-24T23:57:45;9.30;99.90
